Time;durP1;ratioP1;P1;durP2;ratioP2;P2;SDS_P1;SDS_P2;PMS_P1;PMS_P2;Temp;Humidity;BMP_temperature;BMP_pressure;BME280_temperature;BME280_humidity;BME280_pressure;Samples;Min_cycle;Max_cycle;Signal;HPM_P1;HPM_P2
2023/01/21 00:00:56;;;;;;;15.50;10.87;;;11.80;52.80;;;;;;5048431;28;20451;-77
2023/01/21 00:03:24;;;;;;;15.47;11.00;;;11.80;52.90;;;;;;5051891;28;20470;-77
2023/01/21 00:05:51;;;;;;;19.30;11.57;;;11.80;53.00;;;;;;5049668;28;20458;-76
2023/01/21 00:08:20;;;;;;;15.93;10.93;;;11.80;53.00;;;;;;5046991;28;20448;-77
2023/01/21 00:10:47;;;;;;;15.13;11.17;;;11.80;53.00;;;;;;5048962;28;20482;-77
2023/01/21 00:13:16;;;;;;;17.27;11.50;;;11.80;53.10;;;;;;5049070;28;20474;-77
2023/01/21 00:15:44;;;;;;;16.43;12.03;;;11.80;53.10;;;;;;5053187;28;20462;-77
2023/01/21 00:18:12;;;;;;;16.13;11.73;;;11.80;53.10;;;;;;5050574;28;20482;-78
2023/01/21 00:20:40;;;;;;;18.40;11.40;;;11.80;53.40;;;;;;5046751;28;20467;-77
2023/01/21 00:23:09;;;;;;;17.93;11.30;;;11.80;53.30;;;;;;5051800;28;20470;-77
2023/01/21 00:25:37;;;;;;;16.67;11.40;;;11.80;53.40;;;;;;5048839;28;20458;-76
2023/01/21 00:28:05;;;;;;;17.60;11.70;;;11.80;53.50;;;;;;5046996;28;20455;-77
2023/01/21 00:30:35;;;;;;;17.03;11.53;;;11.90;53.60;;;;;;5046477;28;20455;-77
2023/01/21 00:33:03;;;;;;;17.57;11.90;;;11.80;53.50;;;;;;5045764;28;20529;-77
2023/01/21 00:35:32;;;;;;;19.83;12.67;;;11.90;53.60;;;;;;5052062;28;20458;-77
2023/01/21 00:38:00;;;;;;;19.13;12.03;;;11.90;53.90;;;;;;5044916;28;20471;-77
2023/01/21 00:40:28;;;;;;;20.10;11.77;;;11.90;53.90;;;;;;5052532;28;20461;-77
2023/01/21 00:42:56;;;;;;;15.93;11.30;;;11.90;54.00;;;;;;5049386;28;20485;-77
2023/01/21 00:45:24;;;;;;;17.87;11.87;;;11.90;53.90;;;;;;5046009;28;20465;-77
2023/01/21 00:47:54;;;;;;;19.70;11.80;;;12.00;54.20;;;;;;5052262;28;20446;-77
2023/01/21 00:50:22;;;;;;;17.67;11.90;;;11.90;54.10;;;;;;5049191;28;20451;-77
2023/01/21 00:52:50;;;;;;;19.13;12.43;;;11.90;54.20;;;;;;5047729;28;20482;-77
2023/01/21 00:55:18;;;;;;;18.30;11.70;;;11.90;54.10;;;;;;5048646;28;20450;-77
2023/01/21 00:57:46;;;;;;;16.27;11.40;;;11.90;54.40;;;;;;5053849;28;20446;-77
2023/01/21 01:00:15;;;;;;;15.23;11.23;;;11.90;54.30;;;;;;5059539;28;20450;-77
2023/01/21 01:02:44;;;;;;;18.37;12.03;;;12.00;54.40;;;;;;5051839;28;20466;-77
2023/01/21 01:05:13;;;;;;;18.10;12.20;;;12.00;54.50;;;;;;5055341;28;20457;-77
2023/01/21 01:07:42;;;;;;;17.40;12.07;;;12.00;54.50;;;;;;5051924;28;20446;-77
2023/01/21 01:10:10;;;;;;;15.10;11.20;;;12.00;54.60;;;;;;5056576;28;20442;-77
2023/01/21 01:12:38;;;;;;;16.60;11.80;;;12.00;54.60;;;;;;5052747;28;20493;-77
2023/01/21 01:15:07;;;;;;;15.00;10.67;;;12.00;54.80;;;;;;5066229;28;20438;-77
2023/01/21 01:17:35;;;;;;;15.87;10.97;;;12.00;55.40;;;;;;5051046;28;20949;-77
2023/01/21 01:20:03;;;;;;;19.20;12.17;;;12.00;54.80;;;;;;5033859;28;20447;-77
2023/01/21 01:22:32;;;;;;;17.10;11.57;;;12.00;54.80;;;;;;5054257;28;20481;-77
2023/01/21 01:25:00;;;;;;;13.20;10.37;;;12.00;54.90;;;;;;5048761;28;20454;-77
2023/01/21 01:27:29;;;;;;;17.07;11.07;;;12.00;54.90;;;;;;5050091;28;20471;-77
2023/01/21 01:29:57;;;;;;;15.67;10.70;;;12.00;54.90;;;;;;5047250;28;20450;-77
2023/01/21 01:32:25;;;;;;;15.57;10.67;;;12.00;55.50;;;;;;5050210;28;20486;-77
2023/01/21 01:34:53;;;;;;;14.70;10.50;;;12.00;55.00;;;;;;5045499;28;20459;-77
2023/01/21 01:37:20;;;;;;;16.47;11.10;;;12.10;55.10;;;;;;5044775;28;20453;-77
2023/01/21 01:39:50;;;;;;;17.00;11.10;;;12.10;55.20;;;;;;5047349;28;20453;-77
2023/01/21 01:42:18;;;;;;;15.47;11.87;;;12.10;55.20;;;;;;5047562;28;20476;-77
2023/01/21 01:44:56;;;;;;;17.60;11.40;;;12.10;55.10;;;;;;5043497;28;20458;-76
2023/01/21 01:47:28;;;;;;;16.63;11.70;;;12.10;55.30;;;;;;5045261;28;20454;-76
2023/01/21 01:49:55;;;;;;;16.30;10.93;;;12.10;55.30;;;;;;5047933;28;20442;-76
2023/01/21 01:52:23;;;;;;;18.57;10.60;;;12.10;55.40;;;;;;5050597;28;20478;-76
2023/01/21 01:54:53;;;;;;;13.20;10.40;;;12.10;55.40;;;;;;5048857;28;20450;-76
2023/01/21 01:57:22;;;;;;;16.83;11.80;;;12.10;55.50;;;;;;5045182;28;20447;-77
2023/01/21 01:59:51;;;;;;;15.57;11.00;;;12.10;55.60;;;;;;5044973;28;20463;-77
2023/01/21 02:02:19;;;;;;;15.90;11.10;;;12.10;55.60;;;;;;5050104;28;20474;-77
2023/01/21 02:04:50;;;;;;;14.07;10.27;;;12.10;55.50;;;;;;5051309;28;20489;-76
2023/01/21 02:07:19;;;;;;;14.47;10.97;;;12.10;55.40;;;;;;5050276;28;20461;-77
2023/01/21 02:09:48;;;;;;;15.73;10.60;;;12.10;55.60;;;;;;5048376;28;20456;-76
2023/01/21 02:12:17;;;;;;;15.23;10.00;;;12.10;55.50;;;;;;5049009;28;20477;-77
2023/01/21 02:14:45;;;;;;;14.90;10.20;;;12.10;55.60;;;;;;5049672;28;20529;-76
2023/01/21 02:17:20;;;;;;;15.20;11.03;;;12.10;55.60;;;;;;5050051;28;20454;-76
2023/01/21 02:20:16;;;;;;;14.83;10.53;;;12.10;55.40;;;;;;5050462;28;20454;-76
2023/01/21 02:22:46;;;;;;;16.53;11.30;;;12.10;55.50;;;;;;5044942;28;20462;-76
2023/01/21 02:25:39;;;;;;;17.90;11.27;;;12.10;55.50;;;;;;5045206;28;20458;-77
2023/01/21 02:28:39;;;;;;;15.40;10.90;;;12.10;55.50;;;;;;5051556;28;20465;-77
2023/01/21 02:31:30;;;;;;;14.60;10.20;;;12.10;55.50;;;;;;5048259;28;20451;-77
2023/01/21 02:34:09;;;;;;;16.57;11.40;;;12.00;55.40;;;;;;5048750;28;20466;-77
2023/01/21 02:36:42;;;;;;;15.20;11.07;;;12.00;55.50;;;;;;5044500;28;20526;-77
2023/01/21 02:39:15;;;;;;;13.83;10.20;;;12.00;55.40;;;;;;5045737;28;20446;-77
2023/01/21 02:41:50;;;;;;;14.43;10.43;;;12.00;55.50;;;;;;5045344;28;20478;-76
2023/01/21 02:44:21;;;;;;;20.23;10.57;;;12.10;55.50;;;;;;5053908;28;20523;-77
2023/01/21 02:46:50;;;;;;;13.50;9.73;;;12.00;55.40;;;;;;5045370;28;20438;-76
2023/01/21 02:49:22;;;;;;;18.13;10.93;;;12.00;55.40;;;;;;5049956;28;20458;-77
2023/01/21 02:51:50;;;;;;;15.10;10.20;;;12.00;55.40;;;;;;5050666;28;21073;-77
2023/01/21 02:54:48;;;;;;;14.70;10.57;;;12.00;55.30;;;;;;5051012;28;20945;-77
2023/01/21 02:57:18;;;;;;;14.90;10.70;;;12.00;55.40;;;;;;5052696;28;20455;-77
2023/01/21 02:59:47;;;;;;;13.20;10.13;;;12.00;55.40;;;;;;5047305;28;20450;-76
2023/01/21 03:02:20;;;;;;;14.33;10.07;;;12.00;55.50;;;;;;5048977;28;20462;-77
2023/01/21 03:04:53;;;;;;;13.70;10.10;;;12.00;55.50;;;;;;5047509;28;20462;-76
2023/01/21 03:07:22;;;;;;;15.00;10.17;;;12.00;55.50;;;;;;5045698;28;20454;-76
2023/01/21 03:09:50;;;;;;;15.33;10.47;;;12.00;55.60;;;;;;5050540;28;20442;-75
2023/01/21 03:12:28;;;;;;;19.90;10.30;;;12.00;55.50;;;;;;5048216;28;20569;-77
2023/01/21 03:17:49;;;;;;;12.40;10.00;;;12.00;55.60;;;;;;5044663;28;20450;-76
2023/01/21 03:20:20;;;;;;;12.73;9.30;;;12.00;55.60;;;;;;5050516;28;20933;-77
2023/01/21 03:22:48;;;;;;;15.33;10.50;;;12.00;55.60;;;;;;5048375;28;20470;-76
2023/01/21 03:25:16;;;;;;;12.60;9.53;;;12.00;55.60;;;;;;5046904;28;20450;-77
2023/01/21 03:27:45;;;;;;;12.67;9.50;;;12.00;55.70;;;;;;5045877;28;20956;-77
2023/01/21 03:30:14;;;;;;;13.53;9.90;;;12.00;55.70;;;;;;5049694;28;20453;-77
2023/01/21 03:32:43;;;;;;;14.80;10.10;;;12.00;55.70;;;;;;5047601;28;20470;-76
2023/01/21 03:35:12;;;;;;;13.40;9.97;;;12.10;55.70;;;;;;5049392;28;20463;-75
2023/01/21 03:37:43;;;;;;;14.27;10.00;;;12.10;55.80;;;;;;5050452;28;20454;-74
2023/01/21 03:40:14;;;;;;;14.77;9.17;;;12.10;55.80;;;;;;5052454;28;20471;-76
2023/01/21 03:42:42;;;;;;;13.27;9.40;;;12.10;55.90;;;;;;5052300;28;20466;-76
2023/01/21 03:45:10;;;;;;;12.67;9.63;;;12.10;55.80;;;;;;5050105;28;20462;-77
2023/01/21 03:47:38;;;;;;;12.87;9.90;;;12.10;55.80;;;;;;5047156;28;20454;-76
2023/01/21 03:50:08;;;;;;;13.43;9.80;;;12.10;55.90;;;;;;5047831;28;20454;-76
2023/01/21 03:52:36;;;;;;;11.80;9.00;;;12.10;55.80;;;;;;5051172;28;20478;-76
2023/01/21 03:55:06;;;;;;;13.23;9.17;;;12.10;55.90;;;;;;5049730;28;20473;-77
2023/01/21 03:57:33;;;;;;;14.27;9.87;;;12.10;55.90;;;;;;5048530;28;20455;-76
2023/01/21 04:00:01;;;;;;;12.70;9.33;;;12.10;55.90;;;;;;5050502;28;20462;-76
2023/01/21 04:02:29;;;;;;;12.20;9.50;;;12.10;56.00;;;;;;5051278;28;20470;-76
2023/01/21 04:04:57;;;;;;;12.20;9.33;;;12.10;56.00;;;;;;5051839;28;20516;-77
2023/01/21 04:07:25;;;;;;;12.83;9.53;;;12.10;56.00;;;;;;5050649;28;20451;-77
2023/01/21 04:09:52;;;;;;;12.80;9.67;;;12.10;56.10;;;;;;5042692;28;20482;-76
2023/01/21 04:12:21;;;;;;;11.50;9.20;;;12.10;56.60;;;;;;5049428;28;20475;-75
2023/01/21 04:14:49;;;;;;;12.50;9.70;;;12.10;56.00;;;;;;5050931;28;20616;-76
2023/01/21 04:17:17;;;;;;;13.17;9.40;;;12.10;56.00;;;;;;5051450;28;20446;-78
2023/01/21 04:19:45;;;;;;;9.20;8.13;;;12.20;56.20;;;;;;5046572;28;20454;-77
2023/01/21 04:22:13;;;;;;;13.63;9.80;;;12.20;56.20;;;;;;5046457;28;20528;-77
2023/01/21 04:24:41;;;;;;;12.07;9.30;;;12.10;56.10;;;;;;5049037;28;20447;-76
2023/01/21 04:27:09;;;;;;;11.47;9.03;;;12.20;56.10;;;;;;5049163;28;20467;-77
2023/01/21 04:29:39;;;;;;;13.13;9.20;;;12.20;56.20;;;;;;5050072;28;20455;-75
2023/01/21 04:32:07;;;;;;;11.60;8.60;;;12.20;56.10;;;;;;5041917;28;20474;-75
2023/01/21 04:34:35;;;;;;;11.00;8.63;;;12.20;56.20;;;;;;5051635;28;20474;-76
2023/01/21 04:37:02;;;;;;;14.77;9.40;;;12.20;56.10;;;;;;5048654;28;20478;-76
2023/01/21 04:39:30;;;;;;;12.83;8.90;;;12.20;56.20;;;;;;5050015;28;20462;-76
2023/01/21 04:41:58;;;;;;;11.50;9.03;;;12.20;56.20;;;;;;5051196;28;20474;-76
2023/01/21 04:44:26;;;;;;;12.40;8.87;;;12.20;56.20;;;;;;5049911;28;20455;-74
2023/01/21 04:46:56;;;;;;;13.87;9.37;;;12.20;56.20;;;;;;5050466;28;20486;-76
2023/01/21 04:49:24;;;;;;;11.57;8.60;;;12.20;56.20;;;;;;5048762;28;20457;-76
2023/01/21 04:51:52;;;;;;;11.47;8.33;;;12.20;56.30;;;;;;5050400;28;20474;-76
2023/01/21 04:54:19;;;;;;;11.63;9.27;;;12.10;56.20;;;;;;5048973;28;20471;-76
2023/01/21 04:56:47;;;;;;;13.20;9.30;;;12.10;56.20;;;;;;5048990;28;20469;-76
2023/01/21 04:59:15;;;;;;;11.83;9.20;;;12.20;56.30;;;;;;5048083;28;20482;-76
2023/01/21 05:01:43;;;;;;;13.30;8.90;;;12.20;56.40;;;;;;5059020;28;20465;-77
2023/01/21 05:04:12;;;;;;;9.60;7.63;;;12.20;56.40;;;;;;5072596;28;20446;-77
2023/01/21 05:06:40;;;;;;;11.03;8.00;;;12.20;56.40;;;;;;5043948;28;20446;-76
2023/01/21 05:09:08;;;;;;;11.80;8.60;;;12.20;56.40;;;;;;5046570;28;20456;-76
2023/01/21 05:11:36;;;;;;;12.63;8.77;;;12.20;56.50;;;;;;5050290;28;20491;-76
2023/01/21 05:14:04;;;;;;;10.77;8.50;;;12.20;56.50;;;;;;5050326;28;20477;-76
2023/01/21 05:16:32;;;;;;;12.30;8.87;;;12.20;56.40;;;;;;5051554;28;20462;-75
2023/01/21 05:19:00;;;;;;;9.83;7.70;;;12.20;56.40;;;;;;5048366;28;20459;-77
2023/01/21 05:21:29;;;;;;;11.73;8.90;;;12.20;56.30;;;;;;5050628;28;20528;-76
2023/01/21 05:23:57;;;;;;;9.80;7.87;;;12.20;56.20;;;;;;5048299;28;20972;-75
2023/01/21 05:26:25;;;;;;;12.87;8.37;;;12.20;56.20;;;;;;5048664;28;20485;-77
2023/01/21 05:28:52;;;;;;;10.17;8.27;;;12.20;56.20;;;;;;5050358;28;20446;-76
2023/01/21 05:31:20;;;;;;;12.30;8.77;;;12.20;56.20;;;;;;5045868;28;20452;-76
2023/01/21 05:33:48;;;;;;;10.70;8.33;;;12.20;56.20;;;;;;5051354;28;20481;-76
2023/01/21 05:36:16;;;;;;;12.93;8.83;;;12.10;56.10;;;;;;5048072;28;20459;-77
2023/01/21 05:38:46;;;;;;;9.97;8.20;;;12.20;56.30;;;;;;5050525;28;20442;-76
2023/01/21 05:41:13;;;;;;;11.70;8.50;;;12.20;56.20;;;;;;5047616;28;20455;-76
2023/01/21 05:43:41;;;;;;;10.40;7.90;;;12.20;56.90;;;;;;5043711;28;20455;-76
2023/01/21 05:46:09;;;;;;;10.83;8.60;;;12.20;56.30;;;;;;5049646;28;20453;-76
2023/01/21 05:48:37;;;;;;;10.07;8.10;;;12.20;56.40;;;;;;5046077;28;20452;-76
2023/01/21 05:51:06;;;;;;;9.80;8.10;;;12.20;56.30;;;;;;5049627;28;20458;-77
2023/01/21 05:53:33;;;;;;;10.43;8.23;;;12.20;56.40;;;;;;5047981;28;21000;-76
2023/01/21 05:56:03;;;;;;;9.70;7.80;;;12.20;56.30;;;;;;5050762;28;20454;-77
2023/01/21 05:58:31;;;;;;;9.90;7.80;;;12.20;56.50;;;;;;5048354;28;20446;-77
2023/01/21 06:00:59;;;;;;;10.40;8.07;;;12.20;56.40;;;;;;5051222;28;20446;-76
2023/01/21 06:03:27;;;;;;;10.70;7.97;;;12.20;56.50;;;;;;5049945;28;20451;-76
2023/01/21 06:05:55;;;;;;;10.60;7.83;;;12.20;56.50;;;;;;5050777;28;20545;-76
2023/01/21 06:08:23;;;;;;;9.83;7.93;;;12.20;56.40;;;;;;5049320;28;20452;-76
2023/01/21 06:10:53;;;;;;;11.73;7.93;;;12.20;56.50;;;;;;5048232;28;20461;-76
2023/01/21 06:13:22;;;;;;;9.80;7.33;;;12.20;56.50;;;;;;5047815;28;20470;-76
2023/01/21 06:15:54;;;;;;;8.60;6.93;;;12.20;56.40;;;;;;5050626;28;20479;-76
2023/01/21 06:18:21;;;;;;;9.83;7.60;;;12.20;56.40;;;;;;5045058;28;20442;-76
2023/01/21 06:20:49;;;;;;;9.93;7.50;;;12.20;56.60;;;;;;5048992;28;20451;-76
2023/01/21 06:23:18;;;;;;;8.37;6.97;;;12.20;56.60;;;;;;5048222;28;20470;-76
2023/01/21 06:25:45;;;;;;;11.00;7.67;;;12.20;56.60;;;;;;5047141;28;20454;-76
2023/01/21 06:28:14;;;;;;;8.80;6.80;;;12.20;56.60;;;;;;5051663;28;20460;-76
2023/01/21 06:30:43;;;;;;;8.53;7.03;;;12.20;56.60;;;;;;5051213;28;20458;-77
2023/01/21 06:33:12;;;;;;;10.63;7.63;;;12.20;56.60;;;;;;5048858;28;20461;-76
2023/01/21 06:35:39;;;;;;;8.90;7.30;;;12.20;56.60;;;;;;5046371;28;20494;-76
2023/01/21 06:38:07;;;;;;;8.23;7.17;;;12.30;56.70;;;;;;5051406;28;20480;-76
2023/01/21 06:40:35;;;;;;;11.97;7.60;;;12.20;56.60;;;;;;5051709;28;20450;-76
2023/01/21 06:43:03;;;;;;;10.00;7.00;;;12.20;56.60;;;;;;5047429;28;21005;-76
2023/01/21 06:45:30;;;;;;;8.43;7.00;;;12.30;56.60;;;;;;5051049;28;20454;-76
2023/01/21 06:47:59;;;;;;;9.90;7.40;;;12.20;56.60;;;;;;5051189;28;20455;-75
2023/01/21 06:50:27;;;;;;;7.97;6.90;;;12.30;56.60;;;;;;5048599;28;20459;-76
2023/01/21 06:52:56;;;;;;;8.17;6.67;;;12.20;56.70;;;;;;5049414;28;20470;-76
2023/01/21 06:55:24;;;;;;;8.40;6.90;;;12.20;56.60;;;;;;5049929;28;20471;-77
2023/01/21 06:57:52;;;;;;;9.00;7.33;;;12.20;56.70;;;;;;5043353;28;20462;-76
2023/01/21 07:00:20;;;;;;;9.73;7.20;;;12.20;56.80;;;;;;5047233;28;20513;-76
2023/01/21 07:02:48;;;;;;;9.17;7.20;;;12.30;56.90;;;;;;5050526;28;20501;-76
2023/01/21 07:05:19;;;;;;;8.03;7.23;;;12.20;56.80;;;;;;5049345;28;20481;-76
2023/01/21 07:07:47;;;;;;;8.90;6.73;;;12.30;56.80;;;;;;5050109;28;20451;-75
2023/01/21 07:10:15;;;;;;;8.03;7.07;;;12.30;56.70;;;;;;5050824;28;20454;-77
2023/01/21 07:12:43;;;;;;;9.03;6.83;;;12.30;56.80;;;;;;5050391;28;20485;-77
2023/01/21 07:15:11;;;;;;;9.50;7.37;;;12.30;56.90;;;;;;5049896;28;20523;-76
2023/01/21 07:17:39;;;;;;;8.10;6.60;;;12.30;56.80;;;;;;5047306;28;20937;-75
2023/01/21 07:20:08;;;;;;;8.57;6.57;;;12.30;56.80;;;;;;5052647;28;20451;-76
2023/01/21 07:22:37;;;;;;;8.17;6.83;;;12.30;56.80;;;;;;5049150;28;20466;-77
2023/01/21 07:25:07;;;;;;;9.30;7.13;;;12.30;56.80;;;;;;5051475;28;20445;-78
2023/01/21 07:27:34;;;;;;;8.00;6.73;;;12.30;56.90;;;;;;5048029;28;20457;-75
2023/01/21 07:30:03;;;;;;;8.57;7.13;;;12.30;56.80;;;;;;5056431;28;20447;-76
2023/01/21 07:32:30;;;;;;;8.57;6.77;;;12.20;56.70;;;;;;5050768;28;20471;-77
2023/01/21 07:34:58;;;;;;;14.13;7.00;;;12.30;56.90;;;;;;5054868;28;20493;-76
2023/01/21 07:37:26;;;;;;;7.33;6.37;;;12.20;56.80;;;;;;5053303;28;20469;-76
2023/01/21 07:39:56;;;;;;;9.60;7.20;;;12.30;56.90;;;;;;5056524;28;20451;-77
2023/01/21 07:42:24;;;;;;;7.60;6.50;;;12.30;56.80;;;;;;5051030;28;20473;-76
2023/01/21 07:44:52;;;;;;;8.27;6.70;;;12.30;56.90;;;;;;5053991;28;20457;-76
2023/01/21 07:47:20;;;;;;;8.40;6.70;;;12.30;56.80;;;;;;5049763;28;20456;-76
2023/01/21 07:49:48;;;;;;;8.50;6.37;;;12.30;56.90;;;;;;5052931;28;20460;-78
2023/01/21 07:52:16;;;;;;;7.27;5.93;;;12.30;56.80;;;;;;5050725;28;20534;-75
2023/01/21 07:54:44;;;;;;;7.10;6.03;;;12.30;56.90;;;;;;5046671;28;20449;-76
2023/01/21 07:57:13;;;;;;;6.63;5.93;;;12.40;57.00;;;;;;5053984;28;20449;-76
2023/01/21 07:59:42;;;;;;;9.37;6.67;;;12.30;56.80;;;;;;5054239;28;20455;-77
2023/01/21 08:02:11;;;;;;;7.10;6.17;;;12.30;56.80;;;;;;5052082;28;20477;-77
2023/01/21 08:04:40;;;;;;;6.90;6.20;;;12.40;57.00;;;;;;5057906;28;20525;-77
2023/01/21 08:07:09;;;;;;;6.87;6.17;;;12.40;56.90;;;;;;5056954;28;20458;-78
2023/01/21 08:09:40;;;;;;;7.80;6.17;;;12.40;56.90;;;;;;5055909;28;20454;-77
2023/01/21 08:12:08;;;;;;;7.57;6.20;;;12.40;57.00;;;;;;5052780;28;20470;-76
2023/01/21 08:14:38;;;;;;;6.83;6.10;;;12.40;57.00;;;;;;5051044;28;20453;-77
2023/01/21 08:17:06;;;;;;;8.33;5.90;;;12.40;56.90;;;;;;5052902;28;20477;-76
2023/01/21 08:19:33;;;;;;;7.17;6.07;;;12.40;56.90;;;;;;5049892;28;20443;-77
2023/01/21 08:22:01;;;;;;;6.80;6.10;;;12.50;57.00;;;;;;5055005;28;20470;-77
2023/01/21 08:24:29;;;;;;;8.13;6.20;;;12.50;57.00;;;;;;5053167;28;20458;-77
2023/01/21 08:26:58;;;;;;;6.33;5.37;;;12.50;57.10;;;;;;5051450;28;20447;-77
2023/01/21 08:29:26;;;;;;;7.90;6.67;;;12.50;57.10;;;;;;5052336;28;20469;-77
2023/01/21 08:31:57;;;;;;;6.50;5.87;;;12.50;57.00;;;;;;5057654;28;20470;-77
2023/01/21 08:34:25;;;;;;;6.23;5.60;;;12.60;57.10;;;;;;5053123;28;20459;-77
2023/01/21 08:36:53;;;;;;;8.50;5.93;;;12.60;57.20;;;;;;5052809;28;20474;-77
2023/01/21 08:39:21;;;;;;;5.80;5.20;;;12.70;57.20;;;;;;5054317;28;20453;-77
2023/01/21 08:41:50;;;;;;;7.00;5.83;;;12.70;57.10;;;;;;5046580;28;20479;-76
2023/01/21 08:44:18;;;;;;;6.97;5.80;;;12.70;57.00;;;;;;5054147;28;20451;-76
2023/01/21 08:46:47;;;;;;;7.00;5.83;;;12.70;57.00;;;;;;5052107;28;20478;-77
2023/01/21 08:49:16;;;;;;;7.20;6.17;;;12.70;57.00;;;;;;5057285;28;20449;-76
2023/01/21 08:51:44;;;;;;;7.00;5.70;;;12.70;56.90;;;;;;5050165;28;20470;-75
2023/01/21 08:54:12;;;;;;;6.30;5.70;;;12.80;57.10;;;;;;5055912;28;20453;-76
2023/01/21 08:56:40;;;;;;;6.43;5.80;;;12.70;57.00;;;;;;5047405;28;20466;-76
2023/01/21 08:59:08;;;;;;;6.30;5.30;;;12.70;57.00;;;;;;5049928;28;20459;-76
2023/01/21 09:01:39;;;;;;;6.90;5.50;;;12.80;57.00;;;;;;5047766;28;20471;-77
2023/01/21 09:04:08;;;;;;;8.33;6.43;;;12.80;57.20;;;;;;5063138;28;20462;-77
2023/01/21 09:06:38;;;;;;;6.23;5.33;;;12.80;57.10;;;;;;5051046;28;20979;-77
2023/01/21 09:09:06;;;;;;;6.33;5.67;;;12.80;57.10;;;;;;5055323;28;20461;-75
2023/01/21 09:11:34;;;;;;;6.53;5.53;;;12.90;57.20;;;;;;5051796;28;20477;-76
2023/01/21 09:14:03;;;;;;;7.33;5.77;;;12.90;57.10;;;;;;5053570;28;20454;-76
2023/01/21 09:16:31;;;;;;;6.07;5.47;;;12.80;57.10;;;;;;5049960;28;20483;-76
2023/01/21 09:18:59;;;;;;;6.30;5.67;;;12.90;57.20;;;;;;5054563;28;20442;-76
2023/01/21 09:21:28;;;;;;;7.63;6.07;;;12.90;57.10;;;;;;5055406;28;20482;-76
2023/01/21 09:23:58;;;;;;;6.83;5.97;;;12.90;57.10;;;;;;5055771;28;20500;-77
2023/01/21 09:26:25;;;;;;;7.00;5.97;;;12.90;57.10;;;;;;5052096;28;20453;-76
2023/01/21 09:28:56;;;;;;;6.13;5.53;;;13.00;57.30;;;;;;5056577;28;20457;-77
2023/01/21 09:31:26;;;;;;;7.03;5.80;;;13.00;57.30;;;;;;5052517;28;20560;-76
2023/01/21 09:33:55;;;;;;;5.83;5.27;;;13.00;57.30;;;;;;5055705;28;20438;-77
2023/01/21 09:36:24;;;;;;;5.50;5.00;;;13.10;57.40;;;;;;5052636;28;20470;-76
2023/01/21 09:38:52;;;;;;;6.80;6.10;;;13.10;57.20;;;;;;5054434;28;20473;-76
2023/01/21 09:41:27;;;;;;;7.10;5.73;;;13.20;57.30;;;;;;5056367;28;20464;-78
2023/01/21 09:44:02;;;;;;;7.90;6.33;;;13.30;57.20;;;;;;5052617;28;20545;-76
2023/01/21 09:46:36;;;;;;;7.10;5.80;;;13.30;57.30;;;;;;5047023;28;20447;-77
2023/01/21 09:49:05;;;;;;;6.57;5.87;;;13.30;57.20;;;;;;5053874;28;20457;-77
2023/01/21 09:51:43;;;;;;;6.67;5.97;;;13.20;57.20;;;;;;5052974;28;20466;-76
2023/01/21 09:54:15;;;;;;;8.60;6.37;;;13.30;57.20;;;;;;5055893;28;20484;-76
2023/01/21 09:56:57;;;;;;;8.67;6.20;;;13.30;57.20;;;;;;5052410;28;20462;-77
2023/01/21 09:59:32;;;;;;;8.27;6.10;;;13.30;57.30;;;;;;5049133;28;20956;-76
2023/01/21 10:02:01;;;;;;;10.07;7.20;;;13.30;57.30;;;;;;5051390;28;20465;-76
2023/01/21 10:04:36;;;;;;;9.30;7.53;;;13.30;57.30;;;;;;5058952;28;20460;-77
2023/01/21 10:07:06;;;;;;;8.80;7.20;;;13.30;57.30;;;;;;5060108;28;20547;-77
2023/01/21 10:09:40;;;;;;;7.63;6.53;;;13.30;57.40;;;;;;5054264;28;20454;-77
2023/01/21 10:12:20;;;;;;;6.77;6.07;;;13.30;57.40;;;;;;5049172;28;20492;-77
2023/01/21 10:15:04;;;;;;;10.13;7.40;;;13.30;57.40;;;;;;5051646;28;20447;-77
2023/01/21 10:17:36;;;;;;;9.90;7.43;;;13.30;57.60;;;;;;5049016;28;20467;-77
2023/01/21 10:20:11;;;;;;;9.17;6.90;;;13.30;57.40;;;;;;5052999;28;20442;-76
2023/01/21 10:22:39;;;;;;;7.83;6.23;;;13.30;57.50;;;;;;5057584;28;20482;-77
2023/01/21 10:25:13;;;;;;;9.70;7.67;;;13.40;57.70;;;;;;5052311;28;20447;-77
2023/01/21 10:27:42;;;;;;;8.83;6.70;;;13.40;57.60;;;;;;5052572;28;20469;-77
2023/01/21 10:30:25;;;;;;;8.07;6.97;;;13.40;57.60;;;;;;5056351;28;20446;-77
2023/01/21 10:32:54;;;;;;;8.33;6.97;;;13.40;57.60;;;;;;5050364;28;20478;-78
2023/01/21 10:35:30;;;;;;;7.80;6.43;;;13.50;57.60;;;;;;5053914;28;20460;-76
2023/01/21 10:38:01;;;;;;;10.33;7.40;;;13.50;57.70;;;;;;5052722;28;20473;-77
2023/01/21 10:40:42;;;;;;;9.67;6.90;;;13.50;57.60;;;;;;5051987;28;20446;-78
2023/01/21 10:43:16;;;;;;;8.80;7.10;;;13.50;57.60;;;;;;5050693;28;20501;-77
2023/01/21 10:45:46;;;;;;;7.83;6.57;;;13.60;57.70;;;;;;5046420;28;20450;-77
2023/01/21 10:48:15;;;;;;;9.00;6.73;;;13.60;57.60;;;;;;5052960;28;20842;-76
2023/01/21 10:50:48;;;;;;;9.90;7.07;;;13.60;57.70;;;;;;5050319;28;20461;-77
2023/01/21 10:53:20;;;;;;;8.27;6.63;;;13.60;57.60;;;;;;5047090;28;20936;-75
2023/01/21 10:55:59;;;;;;;8.20;6.60;;;13.60;57.70;;;;;;5051331;28;20458;-77
2023/01/21 10:58:30;;;;;;;7.57;6.30;;;13.70;57.70;;;;;;5044322;28;20474;-76
2023/01/21 11:00:59;;;;;;;8.27;6.70;;;13.70;57.80;;;;;;5049289;28;20470;-77
2023/01/21 11:03:31;;;;;;;7.60;6.50;;;13.70;57.80;;;;;;5056225;28;20538;-76
2023/01/21 11:05:59;;;;;;;9.10;6.93;;;13.80;57.70;;;;;;5058566;28;20477;-77
2023/01/21 11:08:27;;;;;;;7.97;6.67;;;13.80;57.80;;;;;;5055550;28;20446;-77
2023/01/21 11:10:58;;;;;;;7.47;6.60;;;13.90;57.70;;;;;;5060338;28;20450;-77
2023/01/21 11:13:26;;;;;;;9.10;7.10;;;13.90;57.70;;;;;;5050144;28;20473;-76
2023/01/21 11:15:58;;;;;;;9.63;7.00;;;14.00;57.60;;;;;;5064780;28;20541;-77
2023/01/21 11:18:29;;;;;;;7.37;6.20;;;14.00;57.60;;;;;;5050026;28;20513;-77
2023/01/21 11:20:58;;;;;;;8.23;6.43;;;14.10;57.50;;;;;;5051427;28;20465;-75
2023/01/21 11:23:27;;;;;;;8.73;7.00;;;14.20;57.50;;;;;;5059538;28;20476;-77
2023/01/21 11:26:01;;;;;;;10.93;7.10;;;14.20;57.50;;;;;;5055545;28;20457;-75
2023/01/21 11:28:30;;;;;;;8.97;6.20;;;14.20;57.40;;;;;;5054720;28;20447;-76
2023/01/21 11:31:10;;;;;;;6.77;5.90;;;14.30;57.60;;;;;;5050326;28;20952;-76
2023/01/21 11:33:39;;;;;;;7.87;6.50;;;14.30;57.20;;;;;;5055246;28;20517;-76
2023/01/21 11:36:12;;;;;;;8.07;6.30;;;14.30;57.30;;;;;;5059681;28;20468;-76
2023/01/21 11:38:40;;;;;;;6.80;5.80;;;14.30;57.30;;;;;;5056574;28;20462;-75
2023/01/21 11:41:15;;;;;;;7.50;6.30;;;14.40;57.30;;;;;;5059149;28;20454;-76
2023/01/21 11:43:44;;;;;;;8.47;6.70;;;14.30;57.40;;;;;;5051321;28;20445;-77
2023/01/21 11:46:33;;;;;;;8.70;6.63;;;14.30;57.30;;;;;;5063458;28;20456;-76
2023/01/21 11:49:24;;;;;;;7.10;6.00;;;14.40;57.30;;;;;;5053116;28;20446;-76
2023/01/21 11:52:16;;;;;;;7.40;6.10;;;14.40;57.50;;;;;;5056975;28;20478;-76
2023/01/21 11:54:44;;;;;;;8.70;6.00;;;14.40;57.40;;;;;;5043354;28;20446;-77
2023/01/21 11:57:27;;;;;;;7.17;5.70;;;14.40;57.60;;;;;;5056977;28;20473;-75
2023/01/21 12:00:00;;;;;;;7.00;5.90;;;14.50;58.00;;;;;;5051670;28;20442;-76
2023/01/21 12:02:30;;;;;;;6.93;5.80;;;14.60;57.80;;;;;;5053396;28;20486;-76
2023/01/21 12:05:00;;;;;;;7.50;5.47;;;14.60;57.70;;;;;;5053616;28;20455;-76
2023/01/21 12:07:30;;;;;;;6.60;5.80;;;14.70;57.60;;;;;;5051819;28;20458;-75
2023/01/21 12:10:03;;;;;;;6.87;5.90;;;14.70;57.50;;;;;;5051738;28;20455;-76
2023/01/21 12:12:36;;;;;;;7.63;6.10;;;14.80;57.50;;;;;;5058034;28;20473;-75
2023/01/21 12:15:10;;;;;;;6.10;5.50;;;14.90;57.50;;;;;;5055746;28;20466;-77
2023/01/21 12:17:47;;;;;;;6.47;5.57;;;15.00;57.50;;;;;;5055046;28;20473;-76
2023/01/21 12:20:20;;;;;;;6.00;5.40;;;15.00;57.40;;;;;;5057170;28;20452;-76
2023/01/21 12:23:20;;;;;;;5.90;5.03;;;15.00;57.30;;;;;;5053290;28;20466;-76
2023/01/21 12:25:50;;;;;;;5.80;5.30;;;15.10;57.40;;;;;;5050183;28;20442;-76
2023/01/21 12:28:46;;;;;;;17.53;11.30;;;15.00;57.30;;;;;;5050492;28;20441;-78
2023/01/21 12:31:22;;;;;;;20.70;12.27;;;14.60;53.60;;;;;;5045749;28;20458;-76
2023/01/21 12:33:54;;;;;;;22.40;14.87;;;14.00;55.00;;;;;;5051624;28;20446;-78
2023/01/21 12:36:25;;;;;;;25.20;15.90;;;13.20;50.70;;;;;;5048591;28;20458;-76
2023/01/21 12:39:12;;;;;;;21.00;13.30;;;13.00;52.20;;;;;;5051678;28;20478;-77
2023/01/21 12:41:40;;;;;;;21.90;13.57;;;13.50;54.30;;;;;;5048649;28;20474;-76
2023/01/21 12:44:17;;;;;;;19.43;12.73;;;13.80;54.10;;;;;;5042182;28;20458;-77
2023/01/21 12:46:47;;;;;;;20.03;13.17;;;14.10;53.70;;;;;;5047515;28;20461;-77
2023/01/21 12:49:19;;;;;;;18.83;12.97;;;14.30;53.60;;;;;;5050746;28;20456;-75
2023/01/21 12:51:47;;;;;;;21.17;12.93;;;14.50;53.80;;;;;;5050988;28;20479;-77
2023/01/21 12:54:18;;;;;;;21.10;12.93;;;14.70;53.90;;;;;;5056697;28;20465;-77
2023/01/21 12:56:47;;;;;;;18.97;11.63;;;14.90;54.00;;;;;;5050112;28;20455;-78